• Join FlightAware (Why Join?)
  • Login
  • US Flag 
09:30PM EDT


 

Airport Tracker/Info


-or-


 

Live Flight TrackerFlight Track Log ✈ ASQ6016 ✈ 14-Jul-2013 ✈ KBNA - KDEN

Flight Track Log - Related Links

Times and Time Zones

All times are in EDT time to prevent confusion due to time zone crossing. See the ASQ6016 flight status page for this flight to view local times or setup timezone preferences in your user account.

Time Position Orientation Groundspeed Altitude Reporting Facility
EDT Latitude Longitude Course Direction KTS MPH feet Rate Location/Type
09:18AM 36.1500 -86.6667 278° West 169 194 1,100  Level Nashville TRACON
09:18AM 36.2000 -86.6500 15° North 198 228 2,900 1,740 Climbing Nashville TRACON
09:19AM 36.2667 -86.6500 360° North 266 306 4,500 2,100 Climbing Nashville TRACON
09:20AM 36.2667 -86.7333 270° West 291 335 7,000 2,280 Climbing Nashville TRACON
09:21AM 36.2606 -87.1925 287° West  Level FlightAware Approximate
09:22AM 36.2833 -87.3285 270° West  Level FlightAware Approximate
09:22AM 36.2700 -86.8689 272° West 305 351 9,900  Level Memphis Center
09:23AM 36.2963 -87.4667 278° West  Level FlightAware Approximate
09:23AM 36.2708 -86.9769 271° West 312 359 12,400  Level Memphis Center
09:24AM 36.2739 -87.0903 272° West 312 359 14,700 1,920 Climbing Memphis Center
09:25AM 36.2767 -87.2008 272° West 312 359 16,300 1,080 Climbing Memphis Center
09:26AM 36.2797 -87.3217 272° West 336 387 16,900 720 Climbing Memphis Center
09:27AM 36.2831 -87.4553 272° West 371 427 17,800 1,200 Climbing Memphis Center
09:28AM 36.2861 -87.5944 272° West 396 456 19,400 1,620 Climbing Memphis Center
09:29AM 36.2892 -87.7256 272° West 396 456 21,100 1,680 Climbing Memphis Center
09:30AM 36.2939 -87.8567 273° West 391 450 22,800 1,500 Climbing Memphis Center
09:31AM 36.2944 -87.9881 270° West 381 438 24,100 1,020 Climbing Memphis Center
09:32AM 36.2986 -88.1089 272° West 381 438 24,900 900 Climbing Memphis Center
09:33AM 36.2992 -88.2556 270° West 386 444 26,000 1,200 Climbing Memphis Center
09:34AM 36.3014 -88.3972 271° West 404 465 27,300 1,200 Climbing Memphis Center
09:35AM 36.3036 -88.5389 271° West 404 465 28,400 1,020 Climbing Memphis Center
09:36AM 36.3036 -88.6831 270° West 414 476 29,400 900 Climbing Memphis Center
09:37AM 36.3053 -88.8092 271° West 414 476 30,200 900 Climbing Memphis Center
09:38AM 36.3069 -88.9558 271° West 419 482 31,200 900 Climbing Memphis Center
09:39AM 36.3064 -89.1053 270° West 425 489 32,100 960 Climbing Memphis Center
09:40AM 36.3058 -89.2547 270° West 425 489 33,200 1,020 Climbing Memphis Center
09:41AM 36.3072 -89.4092 271° West 445 512 34,200 960 Climbing Memphis Center
09:42AM 36.3083 -89.5611 271° West 451 519 35,200 840 Climbing Memphis Center
09:43AM 36.3111 -89.7081 271° West 440 506 35,900 360 Climbing Memphis Center
09:44AM 36.3119 -89.8728 270° West 440 506 36,000  Climbing Memphis Center
09:45AM 36.3103 -90.0325 269° West 450 518 36,000  Level Memphis Center
09:46AM 36.3106 -90.2000 270° West 468 539 36,000  Level Memphis Center
09:47AM 36.3108 -90.3672 270° West 483 556 36,000  Level Memphis Center
09:48AM 36.3086 -90.5372 269° West 495 570 36,000  Level Memphis Center
09:49AM 36.3103 -90.7072 271° West 495 570 36,000  Level Memphis Center
09:50AM 36.3078 -90.8747 269° West 495 570 36,000  Level Memphis Center
09:51AM 36.3069 -91.0317 270° West 489 563 36,000  Level Memphis Center
09:52AM 36.3058 -91.1992 270° West 484 557 36,000  Level Memphis Center
09:53AM 36.3025 -91.3639 269° West 478 550 36,000  Level Memphis Center
09:54AM 36.3033 -91.5286 270° West 478 550 36,000  Level Memphis Center
09:55AM 36.2975 -91.6933 268° West 478 550 36,000  Level Memphis Center
09:56AM 36.3019 -91.8531 272° West 473 544 36,000  Level Memphis Center
09:57AM 36.2997 -92.0153 269° West 473 544 36,000  Level Memphis Center
09:58AM 36.2956 -92.1722 268° West 473 544 36,000  Level Memphis Center
09:59AM 36.2953 -92.3294 270° West 468 539 36,000  Level Memphis Center
10:00AM 36.2908 -92.4736 268° West 468 539 36,000  Level Memphis Center
10:01AM 36.2881 -92.6356 269° West 468 539 36,000  Level Memphis Center
10:02AM 36.2828 -92.7950 268° West 473 544 36,000  Level Memphis Center
10:03AM 36.2797 -92.9572 269° West 473 544 36,000  Level Memphis Center
10:04AM 36.2761 -93.1142 268° West 473 544 36,000  Level Memphis Center
10:05AM 36.2706 -93.2708 268° West 466 536 36,000  Level Memphis Center
10:06AM 36.2669 -93.4253 268° West 460 529 36,000  Level Memphis Center
10:07AM 36.2631 -93.5769 268° West 460 529 36,000  Level Memphis Center
10:08AM 36.2564 -93.7542 267° West 460 529 36,000  Level Memphis Center
10:09AM 36.2547 -93.8881 269° West 453 521 36,000  Level Memphis Center
10:10AM 36.2500 -94.0447 268° West 453 521 36,000  Level Memphis Center
10:11AM 36.2658 -94.2822 275° West 447 514 36,000  Level Kansas City Center
10:12AM 36.2906 -94.4303 282° West 442 509 36,000  Level Kansas City Center
10:13AM 36.3164 -94.5744 283° West 436 502 36,000  Level Kansas City Center
10:14AM 36.3503 -94.7389 284° West 420 483 36,000  Level Kansas City Center
10:15AM 36.3786 -94.8750 285° West 413 475 36,000  Level Kansas City Center
10:16AM 36.4047 -95.0094 284° West 407 468 36,000  Level Kansas City Center
10:18AM 36.4250 -95.1258 282° West 402 463 36,000  Level Kansas City Center
10:19AM 36.4533 -95.2853 283° West 396 456 36,000  Level Kansas City Center
10:20AM 36.4767 -95.4189 282° West 397 457 36,000  Level Kansas City Center
10:21AM 36.4997 -95.5550 282° West 399 459 36,000  Level Kansas City Center
10:22AM 36.5275 -95.6956 284° West 408 470 36,000  Level Kansas City Center
10:23AM 36.5533 -95.8403 283° West 404 465 36,000  Level Kansas City Center
10:24AM 36.5781 -95.9758 283° West 402 463 36,000  Level Kansas City Center
10:25AM 36.6036 -96.1108 283° West 402 463 36,000  Level Kansas City Center
10:26AM 36.6306 -96.2475 284° West 404 465 36,000  Level Kansas City Center
10:27AM 36.6528 -96.3900 281° West 414 476 36,000  Level Kansas City Center
10:28AM 36.6664 -96.5403 276° West 431 496 36,000  Level Kansas City Center
10:29AM 36.6822 -96.6914 277° West 437 503 36,000  Level Kansas City Center
10:30AM 36.6978 -96.8422 277° West 439 505 36,000  Level Kansas City Center
10:31AM 36.7164 -97.0208 277° West 435 501 36,000  Level Kansas City Center
10:32AM 36.7294 -97.1533 277° West 434 499 36,000  Level Kansas City Center
10:33AM 36.7444 -97.3058 277° West 441 507 36,000  Level Kansas City Center
10:34AM 36.7608 -97.4772 277° West 445 512 36,000  Level Kansas City Center
10:35AM 36.7753 -97.6319 277° West 447 514 36,000  Level Kansas City Center
10:36AM 36.7894 -97.7775 277° West 446 513 36,000  Level Kansas City Center
10:37AM 36.8031 -97.9314 276° West 446 513 36,000  Level Kansas City Center
10:38AM 36.8211 -98.1164 277° West 446 513 36,000  Level Kansas City Center
10:39AM 36.8319 -98.2497 276° West 447 514 36,000  Level Kansas City Center
10:40AM 36.8453 -98.4036 276° West 446 513 36,000  Level Kansas City Center
10:41AM 36.8603 -98.5692 277° West 435 501 36,000  Level Kansas City Center
10:42AM 36.8728 -98.7167 276° West 429 494 36,000  Level Kansas City Center
10:43AM 36.8858 -98.8669 276° West 433 498 36,000  Level Kansas City Center
10:44AM 36.8975 -99.0189 276° West 436 502 36,000  Level Kansas City Center
10:45AM 36.9100 -99.1700 276° West 438 504 36,000  Level Kansas City Center
10:46AM 36.9253 -99.3553 276° West 445 512 36,000  Level Kansas City Center
10:47AM 36.9378 -99.5108 276° West 447 514 36,000  Level Kansas City Center
10:48AM 36.9500 -99.6650 276° West 447 514 36,000  Level Kansas City Center
10:49AM 36.9614 -99.8200 275° West 448 516 36,000  Level Kansas City Center
10:50AM 36.9719 -99.9733 275° West 446 513 36,000  Level Kansas City Center
10:51AM 36.9839 -100.1236 276° West 438 504 36,000  Level Kansas City Center
10:52AM 36.9969 -100.2878 276° West 428 493 36,000  Level Kansas City Center
10:53AM 37.0078 -100.4347 275° West 436 502 36,000  Level Kansas City Center
10:54AM 37.0197 -100.6117 275° West 449 517 36,000  Level Kansas City Center
10:55AM 37.0303 -100.7631 275° West 453 521 36,000  Level Kansas City Center
10:56AM 37.0403 -100.9131 275° West 453 521 36,000  Level Kansas City Center
10:57AM 37.1061 -101.0611 299° West 442 509 36,000 -300 Level Kansas City Center
10:59AM 37.1822 -101.1719 311° West 437 503 35,400 -660 Descending Kansas City Center
11:00AM 37.2689 -101.2997 310° West 431 496 34,700 -600 Descending Kansas City Center
11:01AM 37.3453 -101.4103 311° West 433 498 34,200 -360 Descending Kansas City Center
11:02AM 37.4222 -101.5244 310° West 439 505 34,000 -120 Descending Kansas City Center
11:03AM 37.5142 -101.6592 311° West 449 517 34,000  Level Kansas City Center
11:04AM 37.5919 -101.7753 310° West 451 519 34,000  Level Kansas City Center
11:05AM 37.6814 -101.9089 310° West 446 513 34,000  Level Kansas City Center
11:06AM 37.7581 -102.0222 311° West 445 512 34,000  Level Kansas City Center
11:07AM 37.8472 -102.1564 310° West 445 512 34,000 -240 Level Kansas City Center
11:08AM 37.9161 -102.2469 314° West 447 514 33,600 -840 Descending Denver Center
11:09AM 38.0092 -102.3758 313° West 444 511 32,500 -1,020 Descending Denver Center
11:10AM 38.0908 -102.4831 314° West 442 509 31,600 -900 Descending Denver Center
11:11AM 38.1856 -102.6136 313° West 448 516 30,700 -720 Descending Denver Center
11:12AM 38.2681 -102.7275 313° West 456 525 30,200 -360 Descending Denver Center
11:13AM 38.3661 -102.8639 313° West 464 534 30,000 -120 Descending Denver Center
11:14AM 38.4497 -102.9772 313° West 460 529 30,000  Level Denver Center
11:15AM 38.5319 -103.0928 312° West 458 527 30,000  Level Denver Center
11:16AM 38.6200 -103.2144 313° West 457 526 30,000  Level Denver Center
11:17AM 38.7044 -103.3331 312° West 453 521 30,000 -720 Level Denver Center
11:18AM 38.8044 -103.4764 312° West 440 506 28,600 -1,320 Descending Denver Center
11:19AM 38.8831 -103.5850 313° West 429 494 27,300 -1,440 Descending Denver Center
11:20AM 38.9603 -103.6950 312° West 419 482 25,700 -1,500 Descending Denver Center
11:21AM 39.0353 -103.8022 312° West 406 467 24,200 -1,800 Descending Denver Center
11:22AM 39.1072 -103.9056 312° West 391 450 22,100 -1,920 Descending Denver Center
11:23AM 39.1881 -104.0228 312° West 366 421 20,300 -2,160 Descending Denver Center
11:24AM 39.2558 -104.1192 312° West 369 425 17,700 -2,760 Descending Denver Center
11:25AM 39.3236 -104.2167 312° West 364 419 14,700 -2,640 Descending Denver Center
11:26AM 39.3733 -104.3339 299° West 345 397 12,300 -2,040 Descending Denver Center
11:27AM 39.4200 -104.4467 298° West 355 409 10,500 -1,140 Descending Denver Center
11:28AM 39.5061 -104.5167 328° Northwest 351 404 10,000 -420 Descending Denver Center
11:29AM 39.5822 -104.5625 335° Northwest 301 346 9,700 -840 Descending Denver Center
11:30AM 39.6472 -104.6028 334° Northwest 265 305 8,300 -1,380 Descending Denver Center